createdAt,value
2023-04-17T00:01:27.785Z,3.35
2023-04-17T00:03:54.693Z,3.38
2023-04-17T00:06:21.454Z,2.97
2023-04-17T00:08:48.140Z,2.83
2023-04-17T00:11:15.237Z,3.00
2023-04-17T00:13:44.001Z,2.75
2023-04-17T00:16:12.645Z,3.30
2023-04-17T00:18:40.273Z,3.05
2023-04-17T00:21:06.900Z,3.40
2023-04-17T00:23:33.588Z,3.30
2023-04-17T00:26:00.200Z,3.58
2023-04-17T00:28:26.864Z,3.85
2023-04-17T00:30:53.462Z,3.55
2023-04-17T00:33:20.259Z,2.90
2023-04-17T00:35:47.833Z,4.10
2023-04-17T00:38:14.478Z,4.38
2023-04-17T00:40:42.150Z,4.43
2023-04-17T00:43:08.860Z,4.15
2023-04-17T00:45:35.741Z,4.40
2023-04-17T00:48:04.155Z,3.92
2023-04-17T00:50:33.560Z,5.95
2023-04-17T00:53:00.782Z,9.57
2023-04-17T00:55:32.117Z,5.65
2023-04-17T00:58:00.177Z,3.77
2023-04-17T01:00:26.877Z,3.55
2023-04-17T01:02:56.753Z,3.65
2023-04-17T01:05:25.089Z,3.85
2023-04-17T01:07:52.093Z,3.45
2023-04-17T01:10:18.774Z,3.77
2023-04-17T01:12:49.008Z,4.13
2023-04-17T01:15:17.005Z,4.00
2023-04-17T01:17:43.522Z,4.32
2023-04-17T01:20:11.822Z,3.70
2023-04-17T01:22:38.449Z,3.63
2023-04-17T01:25:05.853Z,4.30
2023-04-17T01:27:36.620Z,3.67
2023-04-17T01:30:03.944Z,3.63
2023-04-17T01:32:34.522Z,3.50
2023-04-17T01:35:01.115Z,4.10
2023-04-17T01:37:27.851Z,3.70
2023-04-17T01:39:55.777Z,4.10
2023-04-17T01:42:23.076Z,4.13
2023-04-17T01:44:50.674Z,4.60
2023-04-17T01:47:20.127Z,4.60
2023-04-17T01:49:46.831Z,4.10
2023-04-17T01:52:13.426Z,4.90
2023-04-17T01:54:40.196Z,4.32
2023-04-17T01:57:06.833Z,4.30
2023-04-17T01:59:35.395Z,4.00
2023-04-17T02:02:02.007Z,4.22
2023-04-17T02:04:28.930Z,4.20
2023-04-17T02:06:56.532Z,3.92
2023-04-17T02:09:23.538Z,4.20
2023-04-17T02:11:50.393Z,3.83
2023-04-17T02:14:18.786Z,3.80
2023-04-17T02:16:48.312Z,3.78
2023-04-17T02:19:14.926Z,4.10
2023-04-17T02:21:42.497Z,3.80
2023-04-17T02:24:09.021Z,4.10
2023-04-17T02:26:36.981Z,9.02
2023-04-17T02:29:04.567Z,18.55
2023-04-17T02:31:31.268Z,18.65
2023-04-17T02:33:57.970Z,13.65
2023-04-17T02:36:24.696Z,10.30
2023-04-17T02:38:51.777Z,6.82
2023-04-17T02:41:19.296Z,8.30
2023-04-17T02:43:47.122Z,8.65
2023-04-17T02:46:16.011Z,15.88
2023-04-17T02:48:43.917Z,7.67
2023-04-17T02:51:10.714Z,7.20
2023-04-17T02:53:37.326Z,5.00
2023-04-17T02:56:05.221Z,5.15
2023-04-17T02:58:33.438Z,4.97
2023-04-17T03:01:02.546Z,4.20
2023-04-17T03:03:34.819Z,4.70
2023-04-17T03:06:04.443Z,5.35
2023-04-17T03:08:35.751Z,5.53
2023-04-17T03:11:03.303Z,5.32
2023-04-17T03:13:30.150Z,5.20
2023-04-17T03:15:58.556Z,5.68
2023-04-17T03:18:25.825Z,6.10
2023-04-17T03:20:54.029Z,5.32
2023-04-17T03:23:20.667Z,5.95
2023-04-17T03:25:47.577Z,6.00
2023-04-17T03:28:18.453Z,6.47
2023-04-17T03:30:45.035Z,5.78
2023-04-17T03:33:12.012Z,5.07
2023-04-17T03:35:38.681Z,5.13
2023-04-17T03:38:08.365Z,5.30
2023-04-17T03:40:36.071Z,5.40
2023-04-17T03:43:02.758Z,6.00
2023-04-17T03:45:30.788Z,5.55
2023-04-17T03:47:57.767Z,5.57
2023-04-17T03:50:24.789Z,5.67
2023-04-17T03:52:55.849Z,6.55
2023-04-17T03:55:24.772Z,5.97
2023-04-17T03:57:52.301Z,5.90
2023-04-17T04:00:21.725Z,5.00
2023-04-17T04:02:53.599Z,5.33
2023-04-17T04:05:48.180Z,5.13
2023-04-17T04:08:16.780Z,5.57
2023-04-17T04:10:47.713Z,4.93
2023-04-17T04:13:21.060Z,5.75
2023-04-17T04:15:56.998Z,5.70
2023-04-17T04:18:26.318Z,5.90
2023-04-17T04:20:53.207Z,5.68
2023-04-17T04:23:27.956Z,5.70
2023-04-17T04:25:56.853Z,5.82
2023-04-17T04:28:53.548Z,5.63
2023-04-17T04:31:37.871Z,5.88
2023-04-17T04:34:06.003Z,6.05
2023-04-17T04:36:36.055Z,5.93
2023-04-17T04:39:20.599Z,5.53
2023-04-17T04:41:50.525Z,5.63
2023-04-17T04:44:19.621Z,5.95
2023-04-17T04:46:47.960Z,5.63
2023-04-17T04:49:17.005Z,6.03
2023-04-17T04:51:43.629Z,5.22
2023-04-17T04:54:10.659Z,5.30
2023-04-17T04:56:46.406Z,5.47
2023-04-17T04:59:16.029Z,5.50
2023-04-17T05:01:51.559Z,5.20
2023-04-17T05:04:21.420Z,5.57
2023-04-17T05:06:51.748Z,5.50
2023-04-17T05:09:18.620Z,5.30
2023-04-17T05:11:47.633Z,5.53
2023-04-17T05:14:14.293Z,5.35
2023-04-17T05:16:41.627Z,5.70
2023-04-17T05:19:08.269Z,6.67
2023-04-17T05:21:56.268Z,6.65
2023-04-17T05:24:23.827Z,6.55
2023-04-17T05:26:50.437Z,6.28
2023-04-17T05:29:17.744Z,6.00
2023-04-17T05:31:44.417Z,5.57
2023-04-17T05:34:23.642Z,5.60
2023-04-17T05:36:50.205Z,6.00
2023-04-17T05:39:16.783Z,5.43
2023-04-17T05:41:43.326Z,5.70
2023-04-17T05:44:09.983Z,5.57
2023-04-17T05:46:37.622Z,5.72
2023-04-17T05:49:04.986Z,4.85
2023-04-17T05:51:31.646Z,4.43
2023-04-17T05:53:58.254Z,5.47
2023-04-17T05:56:25.296Z,5.43
2023-04-17T05:58:52.349Z,5.63
2023-04-17T06:01:22.502Z,5.55
2023-04-17T06:03:52.973Z,5.82
2023-04-17T06:06:23.665Z,5.88
2023-04-17T06:08:53.704Z,7.23
2023-04-17T06:11:23.003Z,7.38
2023-04-17T06:13:49.763Z,6.40
2023-04-17T06:16:18.831Z,6.60
2023-04-17T06:18:47.541Z,6.13
2023-04-17T06:21:14.217Z,6.43
2023-04-17T06:23:40.860Z,6.65
2023-04-17T06:26:08.072Z,6.20
2023-04-17T06:28:34.749Z,6.47
2023-04-17T06:31:01.474Z,6.68
2023-04-17T06:33:28.096Z,8.07
2023-04-17T06:35:56.108Z,6.57
2023-04-17T06:38:29.892Z,6.03
2023-04-17T06:40:56.744Z,6.45
2023-04-17T06:43:23.383Z,6.80
2023-04-17T06:45:53.059Z,6.97
2023-04-17T06:48:19.728Z,6.47
2023-04-17T06:50:47.302Z,9.52
2023-04-17T06:53:13.960Z,10.38
2023-04-17T06:55:40.602Z,7.13
2023-04-17T06:58:10.147Z,6.97
2023-04-17T07:00:36.711Z,5.85
2023-04-17T07:03:03.575Z,6.65
2023-04-17T07:05:30.502Z,6.65
2023-04-17T07:07:57.200Z,6.43
2023-04-17T07:10:23.799Z,7.00
2023-04-17T07:12:50.557Z,7.25
2023-04-17T07:15:17.260Z,6.85
2023-04-17T07:17:44.053Z,6.90
2023-04-17T07:20:11.210Z,7.38
2023-04-17T07:22:38.156Z,6.73
2023-04-17T07:25:05.706Z,6.75
2023-04-17T07:27:32.291Z,6.95
2023-04-17T07:29:58.880Z,6.65
2023-04-17T07:32:25.539Z,6.50
2023-04-17T07:34:52.875Z,7.03
2023-04-17T07:37:19.626Z,6.97
2023-04-17T07:39:49.263Z,6.50
2023-04-17T07:42:16.545Z,6.60
2023-04-17T07:44:43.165Z,7.05
2023-04-17T07:47:09.818Z,7.20
2023-04-17T07:49:36.533Z,7.30
2023-04-17T07:52:03.151Z,7.13
2023-04-17T07:54:31.590Z,7.18
2023-04-17T07:57:02.768Z,7.70
2023-04-17T07:59:30.076Z,7.00
2023-04-17T08:01:57.496Z,7.95
2023-04-17T08:04:25.576Z,7.10
2023-04-17T08:06:52.544Z,7.47
2023-04-17T08:09:21.141Z,8.30
2023-04-17T08:11:56.888Z,7.87
2023-04-17T08:14:24.373Z,7.57
2023-04-17T08:16:51.388Z,7.38
2023-04-17T08:19:18.273Z,8.45
2023-04-17T08:21:47.586Z,7.47
2023-04-17T08:24:14.333Z,8.17
2023-04-17T08:26:41.502Z,8.35
2023-04-17T08:29:08.189Z,8.90
2023-04-17T08:31:39.891Z,7.97
2023-04-17T08:34:14.388Z,6.97
2023-04-17T08:36:42.668Z,8.37
2023-04-17T08:39:12.729Z,7.65
2023-04-17T08:41:47.274Z,7.80
2023-04-17T08:44:21.336Z,7.88
2023-04-17T08:46:49.437Z,7.75
2023-04-17T08:49:16.703Z,7.33
2023-04-17T08:51:43.378Z,7.80
2023-04-17T08:54:10.392Z,7.68
2023-04-17T08:56:37.014Z,6.88
2023-04-17T08:59:04.557Z,7.25
2023-04-17T09:01:31.300Z,7.47
2023-04-17T09:03:58.227Z,7.72
2023-04-17T09:06:24.994Z,7.47
2023-04-17T09:08:58.178Z,7.78
2023-04-17T09:11:25.377Z,7.68
2023-04-17T09:13:53.829Z,6.60
2023-04-17T09:16:21.087Z,7.30
2023-04-17T09:18:48.032Z,7.05
2023-04-17T09:21:16.764Z,6.85
2023-04-17T09:23:50.855Z,6.55
2023-04-17T09:26:31.839Z,7.13
2023-04-17T09:29:11.379Z,7.75
2023-04-17T09:31:40.574Z,7.22
2023-04-17T09:34:09.430Z,7.03
2023-04-17T09:36:37.774Z,7.15
2023-04-17T09:39:16.700Z,6.63
2023-04-17T09:41:43.446Z,7.20
2023-04-17T09:44:12.429Z,6.75
2023-04-17T09:46:45.903Z,6.97
2023-04-17T09:49:24.187Z,7.15
2023-04-17T09:51:50.908Z,6.47
2023-04-17T09:54:20.065Z,6.60
2023-04-17T09:56:49.597Z,6.65
2023-04-17T09:59:16.558Z,6.78
2023-04-17T10:01:44.731Z,6.50
2023-04-17T10:04:12.097Z,6.33
2023-04-17T10:06:39.115Z,6.60
2023-04-17T10:09:05.953Z,6.88
2023-04-17T10:11:38.569Z,6.60
2023-04-17T10:14:25.655Z,6.97
2023-04-17T10:16:52.981Z,6.93
2023-04-17T10:19:31.663Z,7.70
2023-04-17T10:22:18.730Z,6.45
2023-04-17T10:25:10.742Z,6.75
2023-04-17T10:27:37.357Z,6.68
2023-04-17T10:30:05.622Z,6.37
2023-04-17T10:32:34.171Z,7.20
2023-04-17T10:35:03.870Z,6.43
2023-04-17T10:37:50.063Z,6.43
2023-04-17T10:40:22.132Z,6.95
2023-04-17T10:43:22.489Z,7.13
2023-04-17T10:46:12.165Z,6.55
2023-04-17T10:48:52.818Z,6.90
2023-04-17T10:51:29.037Z,6.80
2023-04-17T10:54:02.821Z,6.88
2023-04-17T10:56:39.974Z,6.40
2023-04-17T10:59:08.243Z,6.63
2023-04-17T11:01:42.084Z,6.30
2023-04-17T11:04:10.520Z,6.35
2023-04-17T11:06:39.594Z,6.38
2023-04-17T11:09:10.971Z,6.13
2023-04-17T11:11:44.551Z,6.45
2023-04-17T11:14:15.094Z,6.97
2023-04-17T11:16:44.165Z,7.20
2023-04-17T11:19:15.457Z,6.80
2023-04-17T11:21:42.981Z,6.80
2023-04-17T11:24:10.192Z,7.32
2023-04-17T11:26:48.084Z,6.43
2023-04-17T11:29:21.921Z,6.82
2023-04-17T11:31:51.823Z,7.10
2023-04-17T11:34:19.008Z,6.37
2023-04-17T11:36:59.995Z,6.80
2023-04-17T11:39:32.329Z,6.65
2023-04-17T11:41:59.332Z,6.30
2023-04-17T11:44:28.264Z,6.68
2023-04-17T11:46:56.648Z,6.60
2023-04-17T11:49:37.269Z,6.38
2023-04-17T11:52:05.118Z,6.60
2023-04-17T11:54:37.123Z,7.03
2023-04-17T11:57:06.403Z,6.78
2023-04-17T11:59:37.845Z,6.87
2023-04-17T12:02:07.359Z,7.18
2023-04-17T12:04:36.934Z,7.00
2023-04-17T12:07:05.193Z,6.40
2023-04-17T12:09:33.560Z,6.88
2023-04-17T12:12:09.217Z,7.10
2023-04-17T12:14:36.042Z,6.65
2023-04-17T12:17:02.671Z,6.57
2023-04-17T12:19:31.621Z,6.93
2023-04-17T12:21:59.289Z,6.60
2023-04-17T12:24:26.152Z,6.23
2023-04-17T12:26:52.998Z,6.20
2023-04-17T12:29:26.563Z,6.78
2023-04-17T12:31:59.289Z,6.35
2023-04-17T12:34:27.695Z,6.13
2023-04-17T12:36:54.719Z,5.87
2023-04-17T12:39:21.402Z,6.25
2023-04-17T12:41:47.991Z,5.80
2023-04-17T12:44:14.902Z,6.20
2023-04-17T12:46:41.665Z,6.05
2023-04-17T12:49:08.901Z,6.57
2023-04-17T12:51:38.001Z,6.15
2023-04-17T12:54:04.965Z,6.60
2023-04-17T12:56:32.137Z,6.57
2023-04-17T12:59:01.257Z,6.10
2023-04-17T13:01:29.522Z,5.80
2023-04-17T13:03:56.526Z,6.28
2023-04-17T13:06:23.298Z,6.50
2023-04-17T13:08:49.901Z,6.00
2023-04-17T13:11:16.740Z,6.35
2023-04-17T13:13:43.374Z,6.00
2023-04-17T13:16:10.359Z,6.35
2023-04-17T13:18:37.539Z,6.30
2023-04-17T13:21:04.158Z,6.85
2023-04-17T13:23:32.460Z,6.72
2023-04-17T13:25:59.034Z,6.03
2023-04-17T13:28:25.637Z,6.43
2023-04-17T13:30:53.038Z,6.10
2023-04-17T13:33:19.805Z,5.88
2023-04-17T13:35:46.432Z,6.07
2023-04-17T13:38:12.972Z,6.83
2023-04-17T13:40:40.823Z,6.90
2023-04-17T13:43:09.244Z,6.63
2023-04-17T13:45:36.067Z,6.55
2023-04-17T13:48:02.784Z,7.20
2023-04-17T13:50:29.471Z,5.97
2023-04-17T13:52:57.127Z,6.45
2023-04-17T13:55:24.029Z,6.72
2023-04-17T13:57:51.315Z,6.32
2023-04-17T14:00:18.775Z,6.60
2023-04-17T14:02:46.290Z,6.43
2023-04-17T14:05:13.164Z,7.28
2023-04-17T14:07:39.926Z,6.85
2023-04-17T14:10:07.617Z,8.15
2023-04-17T14:12:34.242Z,7.00
2023-04-17T14:15:00.852Z,6.20
2023-04-17T14:17:27.558Z,6.60
2023-04-17T14:19:54.257Z,6.40
2023-04-17T14:22:20.851Z,7.03
2023-04-17T14:24:47.420Z,6.50
2023-04-17T14:27:13.969Z,6.40
2023-04-17T14:29:40.530Z,6.90
2023-04-17T14:32:07.250Z,6.78
2023-04-17T14:34:33.918Z,7.13
2023-04-17T14:37:00.499Z,6.90
2023-04-17T14:39:28.910Z,7.00
2023-04-17T14:41:57.930Z,6.07
2023-04-17T14:44:25.614Z,7.05
2023-04-17T14:46:52.408Z,6.65
2023-04-17T14:49:20.422Z,5.35
2023-04-17T14:51:46.980Z,5.20
2023-04-17T14:54:13.533Z,5.78
2023-04-17T14:56:40.415Z,5.53
2023-04-17T14:59:07.039Z,6.20
2023-04-17T15:01:33.705Z,6.30
2023-04-17T15:04:00.476Z,5.90
2023-04-17T15:06:27.476Z,6.05
2023-04-17T15:08:54.071Z,6.60
2023-04-17T15:11:21.048Z,14.00
2023-04-17T15:13:47.707Z,11.15
2023-04-17T15:16:14.467Z,7.37
2023-04-17T15:18:41.039Z,7.88
2023-04-17T15:21:07.988Z,7.75
2023-04-17T15:23:35.444Z,5.55
2023-04-17T15:26:02.122Z,5.82
2023-04-17T15:28:28.840Z,5.53
2023-04-17T15:30:56.285Z,5.47
2023-04-17T15:33:22.926Z,6.03
2023-04-17T15:35:55.135Z,5.78
2023-04-17T15:38:21.786Z,5.75
2023-04-17T15:40:48.492Z,5.87
2023-04-17T15:43:15.206Z,5.53
2023-04-17T15:45:41.966Z,5.70
2023-04-17T15:48:08.729Z,5.90
2023-04-17T15:50:35.649Z,5.50
2023-04-17T15:53:02.798Z,5.90
2023-04-17T15:55:29.468Z,5.78
2023-04-17T15:57:56.150Z,5.32
2023-04-17T16:00:22.834Z,5.82
2023-04-17T16:02:49.625Z,6.55
2023-04-17T16:05:17.099Z,5.50
2023-04-17T16:07:44.362Z,5.72
2023-04-17T16:10:14.746Z,6.53
2023-04-17T16:12:45.249Z,5.68
2023-04-17T16:15:14.385Z,5.20
2023-04-17T16:17:41.809Z,5.80
2023-04-17T16:20:09.287Z,5.32
2023-04-17T16:22:36.974Z,5.60
2023-04-17T16:25:04.273Z,5.78
2023-04-17T16:27:32.391Z,5.93
2023-04-17T16:29:59.506Z,5.63
2023-04-17T16:32:27.361Z,6.45
2023-04-17T16:34:54.164Z,5.95
2023-04-17T16:37:20.810Z,5.75
2023-04-17T16:39:47.518Z,6.47
2023-04-17T16:42:14.578Z,5.83
2023-04-17T16:44:41.217Z,5.93
2023-04-17T16:47:13.473Z,5.95
2023-04-17T16:49:41.557Z,5.97
2023-04-17T16:52:08.216Z,6.50
2023-04-17T16:54:34.858Z,5.33
2023-04-17T16:57:01.589Z,6.10
2023-04-17T16:59:28.207Z,6.25
2023-04-17T17:01:54.932Z,5.82
2023-04-17T17:04:21.635Z,6.18
2023-04-17T17:06:48.307Z,5.93
2023-04-17T17:09:15.240Z,6.60
2023-04-17T17:11:42.034Z,6.40
2023-04-17T17:14:08.741Z,7.50
2023-04-17T17:16:35.492Z,7.60
2023-04-17T17:19:02.549Z,6.13
2023-04-17T17:21:29.271Z,6.00
2023-04-17T17:23:56.171Z,6.78
2023-04-17T17:26:22.824Z,7.25
2023-04-17T17:28:51.359Z,7.40
2023-04-17T17:31:18.380Z,7.43
2023-04-17T17:33:49.797Z,8.75
2023-04-17T17:36:16.826Z,9.13
2023-04-17T17:38:43.951Z,10.07
2023-04-17T17:41:10.648Z,11.48
2023-04-17T17:43:37.284Z,9.83
2023-04-17T17:46:03.859Z,9.77
2023-04-17T17:48:30.541Z,9.85
2023-04-17T17:50:57.551Z,9.73
2023-04-17T17:53:26.575Z,9.40
2023-04-17T17:55:56.942Z,9.20
2023-04-17T17:58:24.563Z,9.68
2023-04-17T18:00:51.483Z,9.27
2023-04-17T18:03:18.784Z,7.88
2023-04-17T18:05:46.586Z,6.75
2023-04-17T18:08:13.877Z,7.30
2023-04-17T18:10:40.506Z,7.32
2023-04-17T18:13:07.121Z,6.88
2023-04-17T18:15:33.950Z,7.55
2023-04-17T18:18:00.745Z,6.40
2023-04-17T18:20:27.478Z,5.83
2023-04-17T18:22:54.198Z,6.60
2023-04-17T18:25:21.133Z,6.85
2023-04-17T18:27:47.711Z,7.10
2023-04-17T18:30:15.108Z,6.85
2023-04-17T18:32:41.763Z,6.47
2023-04-17T18:35:08.784Z,6.40
2023-04-17T18:37:35.462Z,5.97
2023-04-17T18:40:02.155Z,5.75
2023-04-17T18:42:28.870Z,5.05
2023-04-17T18:44:55.452Z,5.43
2023-04-17T18:47:22.118Z,5.63
2023-04-17T18:49:52.151Z,6.05
2023-04-17T18:52:18.868Z,7.05
2023-04-17T18:54:45.577Z,7.00
2023-04-17T18:57:12.214Z,6.23
2023-04-17T18:59:39.457Z,5.75
2023-04-17T19:02:07.440Z,6.47
2023-04-17T19:04:34.150Z,7.07
2023-04-17T19:07:02.670Z,7.30
2023-04-17T19:09:29.353Z,6.87
2023-04-17T19:11:57.390Z,7.25
2023-04-17T19:14:24.657Z,8.25
2023-04-17T19:16:51.864Z,7.53
2023-04-17T19:19:18.488Z,8.35
2023-04-17T19:21:45.153Z,8.03
2023-04-17T19:24:11.771Z,9.70
2023-04-17T19:26:38.408Z,9.73
2023-04-17T19:29:05.217Z,9.32
2023-04-17T19:31:32.809Z,8.65
2023-04-17T19:34:00.382Z,8.83
2023-04-17T19:36:28.131Z,8.40
2023-04-17T19:38:55.996Z,9.20
2023-04-17T19:41:22.677Z,8.30
2023-04-17T19:43:51.242Z,8.55
2023-04-17T19:46:19.107Z,15.53
2023-04-17T19:48:47.105Z,15.40
2023-04-17T19:51:14.492Z,23.45
2023-04-17T19:53:42.576Z,11.98
2023-04-17T19:56:10.461Z,10.32
2023-04-17T19:58:37.999Z,10.23
2023-04-17T20:01:04.718Z,11.43
2023-04-17T20:03:32.438Z,11.30
2023-04-17T20:05:59.964Z,10.25
2023-04-17T20:08:26.624Z,10.98
2023-04-17T20:10:53.485Z,11.23
2023-04-17T20:13:20.084Z,10.20
2023-04-17T20:15:47.070Z,8.43
2023-04-17T20:18:13.683Z,9.60
2023-04-17T20:20:40.412Z,11.65
2023-04-17T20:23:07.055Z,11.63
2023-04-17T20:25:33.647Z,12.38
2023-04-17T20:28:02.690Z,10.60
2023-04-17T20:30:29.660Z,8.18
2023-04-17T20:32:56.681Z,8.40
2023-04-17T20:35:24.632Z,8.20
2023-04-17T20:37:51.791Z,8.43
2023-04-17T20:40:19.003Z,8.20
2023-04-17T20:42:46.694Z,9.00
2023-04-17T20:45:13.537Z,9.02
2023-04-17T20:47:55.469Z,9.33
2023-04-17T20:50:24.058Z,8.38
2023-04-17T20:52:50.751Z,8.82
2023-04-17T20:55:19.657Z,8.57
2023-04-17T20:57:46.573Z,8.73
2023-04-17T21:00:14.287Z,8.90
2023-04-17T21:02:41.111Z,9.45
2023-04-17T21:05:08.498Z,9.45
2023-04-17T21:07:36.105Z,9.35
2023-04-17T21:10:02.862Z,10.50
2023-04-17T21:12:29.548Z,10.07
2023-04-17T21:14:56.245Z,10.00
2023-04-17T21:17:22.883Z,10.52
2023-04-17T21:19:49.646Z,10.10
2023-04-17T21:22:16.426Z,9.90
2023-04-17T21:24:43.204Z,9.20
2023-04-17T21:27:10.380Z,8.50
2023-04-17T21:29:37.480Z,8.73
2023-04-17T21:32:04.398Z,8.40
2023-04-17T21:34:31.054Z,8.95
2023-04-17T21:36:59.738Z,8.37
2023-04-17T21:39:26.543Z,8.30
2023-04-17T21:41:53.149Z,8.20
2023-04-17T21:44:19.762Z,8.18
2023-04-17T21:46:46.598Z,7.88
2023-04-17T21:49:13.265Z,7.87
2023-04-17T21:51:40.108Z,7.68
2023-04-17T21:54:08.380Z,8.65
2023-04-17T21:56:35.255Z,8.48
2023-04-17T21:59:02.158Z,8.98
2023-04-17T22:01:28.836Z,9.10
2023-04-17T22:03:55.624Z,10.63
2023-04-17T22:06:22.276Z,10.07
2023-04-17T22:08:48.942Z,9.23
2023-04-17T22:11:15.651Z,10.07
2023-04-17T22:13:42.795Z,9.17
2023-04-17T22:16:09.477Z,10.10
2023-04-17T22:18:36.210Z,9.23
2023-04-17T22:21:03.563Z,8.38
2023-04-17T22:23:30.486Z,9.68
2023-04-17T22:25:57.108Z,13.50
2023-04-17T22:28:23.735Z,10.68
2023-04-17T22:30:51.943Z,9.38
2023-04-17T22:33:18.684Z,9.68
2023-04-17T22:35:45.237Z,10.20
2023-04-17T22:38:11.864Z,10.37
2023-04-17T22:40:38.749Z,8.18
2023-04-17T22:43:05.723Z,8.65
2023-04-17T22:45:32.711Z,7.93
2023-04-17T22:47:59.508Z,8.63
2023-04-17T22:50:26.142Z,8.40
2023-04-17T22:52:52.746Z,7.85
2023-04-17T22:55:19.341Z,8.50
2023-04-17T22:57:45.948Z,7.35
2023-04-17T23:00:13.113Z,7.72
2023-04-17T23:02:39.825Z,7.03
2023-04-17T23:05:07.106Z,6.72
2023-04-17T23:07:33.808Z,6.97
2023-04-17T23:10:00.560Z,7.20
2023-04-17T23:12:27.213Z,7.03
2023-04-17T23:14:53.742Z,7.03
2023-04-17T23:17:20.316Z,7.22
2023-04-17T23:19:47.974Z,7.18
2023-04-17T23:22:14.734Z,6.85
2023-04-17T23:24:41.416Z,7.68
2023-04-17T23:27:07.935Z,7.60
2023-04-17T23:29:34.501Z,7.22
2023-04-17T23:32:01.229Z,7.60
2023-04-17T23:34:28.004Z,8.30
2023-04-17T23:36:54.543Z,8.20
2023-04-17T23:39:21.097Z,8.67
2023-04-17T23:41:47.853Z,8.43
2023-04-17T23:44:14.905Z,8.27
2023-04-17T23:46:41.862Z,8.15
2023-04-17T23:49:09.535Z,8.95
2023-04-17T23:51:36.190Z,9.33
2023-04-17T23:54:02.925Z,9.02
2023-04-17T23:56:30.096Z,8.70
2023-04-17T23:58:57.523Z,8.68
